Time;durP1;ratioP1;P1;durP2;ratioP2;P2;SDS_P1;SDS_P2;PMS_P1;PMS_P2;Temp;Humidity;BMP_temperature;BMP_pressure;BME280_temperature;BME280_humidity;BME280_pressure;Samples;Min_cycle;Max_cycle;Signal;HPM_P1;HPM_P2
2022/09/01 06:57:34;;;;;;;;;8.00;8.00;;;;;23.85;51.50;101273.13;5110010;27;45463;-71
2022/09/01 07:00:06;;;;;;;;;11.33;11.33;;;;;23.86;51.15;101270.25;5108746;27;45446;-72
2022/09/01 07:02:32;;;;;;;;;14.33;13.67;;;;;23.91;51.02;101272.53;5108974;27;45346;-72
2022/09/01 07:04:58;;;;;;;;;12.00;12.00;;;;;24.02;50.76;101271.38;5110806;27;45751;-72
2022/09/01 07:07:26;;;;;;;;;14.00;12.00;;;;;24.11;50.74;101267.75;5109767;27;46144;-72
2022/09/01 07:09:52;;;;;;;;;11.00;11.00;;;;;24.20;50.22;101268.66;5110860;27;46499;-73
2022/09/01 07:12:18;;;;;;;;;10.33;10.33;;;;;24.27;49.87;101266.16;5110039;27;45345;-71
2022/09/01 07:14:47;;;;;;;;;10.67;10.67;;;;;24.34;49.65;101268.06;5111331;27;45497;-71
2022/09/01 07:17:12;;;;;;;;;13.00;12.00;;;;;24.43;49.69;101274.38;5109636;27;46343;-71
2022/09/01 07:19:38;;;;;;;;;11.67;11.00;;;;;24.52;49.29;101277.16;5104309;27;45584;-72
2022/09/01 07:22:04;;;;;;;;;14.00;13.00;;;;;24.56;49.06;101276.63;5108650;27;45915;-72
2022/09/01 07:24:29;;;;;;;;;13.67;13.67;;;;;24.60;48.99;101286.16;5112077;27;45366;-72
2022/09/01 07:26:55;;;;;;;;;12.67;12.33;;;;;24.69;49.38;101288.91;5109961;27;47067;-72
2022/09/01 07:29:21;;;;;;;;;15.33;14.67;;;;;24.79;48.69;101286.06;5105286;27;45571;-71
2022/09/01 07:31:48;;;;;;;;;14.00;13.33;;;;;24.87;48.70;101294.28;5110856;27;45419;-71
2022/09/01 07:34:15;;;;;;;;;13.67;12.00;;;;;24.96;48.48;101285.13;5107324;27;45601;-72
2022/09/01 07:36:43;;;;;;;;;10.00;10.00;;;;;25.05;48.22;101296.88;5111291;27;45344;-72
2022/09/01 07:39:10;;;;;;;;;11.00;11.00;;;;;25.10;48.05;101296.38;5107575;27;45473;-72
2022/09/01 07:41:38;;;;;;;;;13.67;12.00;;;;;25.15;47.99;101288.59;5109372;27;45393;-72
2022/09/01 07:44:04;;;;;;;;;13.33;12.00;;;;;25.22;47.64;101292.31;5110980;27;45476;-72
2022/09/01 07:46:31;;;;;;;;;11.33;11.00;;;;;25.22;47.43;101288.78;5108162;27;46084;-72
2022/09/01 07:48:57;;;;;;;;;12.00;12.00;;;;;25.20;47.49;101291.66;5109888;27;45418;-72
2022/09/01 07:51:25;;;;;;;;;13.33;13.33;;;;;25.20;47.37;101294.38;5107345;27;45555;-73
2022/09/01 07:53:51;;;;;;;;;10.33;10.33;;;;;25.24;47.72;101292.16;5095933;27;45563;-73
2022/09/01 07:56:19;;;;;;;;;11.00;11.00;;;;;25.31;47.54;101295.91;5107418;27;45552;-71
2022/09/01 07:58:46;;;;;;;;;13.00;13.00;;;;;25.32;47.66;101291.31;5109732;27;45550;-72
2022/09/01 08:01:17;;;;;;;;;14.33;12.33;;;;;25.34;47.46;101302.88;5113742;27;45463;-72
2022/09/01 08:03:44;;;;;;;;;11.00;11.00;;;;;25.31;47.54;101300.50;5110482;27;45378;-72
2022/09/01 08:06:13;;;;;;;;;10.67;10.00;;;;;25.35;47.71;101294.56;5110059;27;45428;-72
2022/09/01 08:08:39;;;;;;;;;14.67;13.33;;;;;25.36;47.69;101287.25;5096710;27;45343;-71
2022/09/01 08:11:05;;;;;;;;;12.67;12.33;;;;;25.36;47.54;101285.41;5095743;27;45808;-72
2022/09/01 08:13:33;;;;;;;;;12.00;12.00;;;;;25.33;47.49;101296.59;5096473;27;45429;-72
2022/09/01 08:16:02;;;;;;;;;14.67;13.33;;;;;25.36;47.57;101292.69;5092622;27;45668;-72
2022/09/01 08:18:28;;;;;;;;;12.00;11.00;;;;;25.38;47.45;101294.22;5086330;27;45441;-72
2022/09/01 08:20:53;;;;;;;;;10.00;10.00;;;;;25.45;47.51;101297.13;5093647;27;49566;-72
2022/09/01 08:23:19;;;;;;;;;15.33;13.67;;;;;25.53;47.59;101297.13;5088358;27;45560;-72
2022/09/01 08:25:46;;;;;;;;;9.67;9.67;;;;;25.64;47.67;101301.44;5091544;27;46773;-71
2022/09/01 08:28:13;;;;;;;;;14.00;13.00;;;;;25.79;47.22;101289.88;5091023;27;45710;-71
2022/09/01 08:30:41;;;;;;;;;14.33;12.33;;;;;25.99;47.37;101293.06;5088275;27;45675;-72
2022/09/01 08:33:08;;;;;;;;;11.33;11.33;;;;;26.22;46.58;101295.06;5086012;27;45755;-72
2022/09/01 08:35:34;;;;;;;;;8.33;7.67;;;;;26.46;46.20;101293.34;5088149;27;45450;-72
2022/09/01 08:37:59;;;;;;;;;10.00;10.00;;;;;26.67;46.37;101291.88;5093509;27;45540;-72
2022/09/01 08:40:25;;;;;;;;;11.33;10.33;;;;;26.84;45.97;101298.97;5092433;27;45875;-71
2022/09/01 08:43:25;;;;;;;;;8.33;8.33;;;;;27.05;45.97;101305.69;5085951;27;45510;-71
2022/09/01 08:45:54;;;;;;;;;13.00;12.00;;;;;27.20;45.60;101303.06;5082159;27;46132;-72
2022/09/01 08:48:30;;;;;;;;;10.33;10.00;;;;;27.31;45.54;101299.09;5089073;27;46042;-72
2022/09/01 08:51:22;;;;;;;;;10.67;10.00;;;;;27.42;45.14;101302.41;5085989;27;45536;-71
2022/09/01 08:54:05;;;;;;;;;9.67;9.00;;;;;27.54;45.28;101303.66;5076841;27;45612;-71
2022/09/01 08:56:31;;;;;;;;;11.67;10.33;;;;;27.63;44.82;101307.22;5085816;27;45512;-72
2022/09/01 08:58:57;;;;;;;;;11.33;10.00;;;;;27.71;44.77;101301.69;5088183;27;45450;-72
2022/09/01 09:02:04;;;;;;;;;12.00;11.33;;;;;27.82;44.40;101313.19;5084405;27;45577;-72
2022/09/01 09:05:14;;;;;;;;;10.67;10.67;;;;;27.89;44.32;101303.25;5045119;28;45703;-72
2022/09/01 09:07:58;;;;;;;;;10.67;10.00;;;;;27.99;44.67;101297.50;5048265;28;45817;-72
2022/09/01 09:11:09;;;;;;;;;12.33;10.67;;;;;28.04;44.43;101297.81;5047767;28;45678;-73
2022/09/01 09:14:12;;;;;;;;;9.33;9.33;;;;;28.11;44.46;101301.50;5053363;28;45469;-74
2022/09/01 09:16:52;;;;;;;;;10.33;9.00;;;;;28.17;44.49;101293.59;5048810;28;45439;-73
2022/09/01 09:19:24;;;;;;;;;9.67;9.67;;;;;28.23;44.37;101295.56;5052100;28;46170;-72
2022/09/01 09:21:53;;;;;;;;;10.00;10.00;;;;;28.27;43.87;101289.59;5046266;28;45503;-73
2022/09/01 09:24:59;;;;;;;;;10.67;10.00;;;;;28.37;43.90;101293.91;5033899;28;45520;-72
2022/09/01 09:27:28;;;;;;;;;11.00;11.00;;;;;28.44;43.80;101292.13;4991865;28;45504;-72
2022/09/01 09:30:07;;;;;;;;;11.33;10.00;;;;;28.48;44.03;101281.69;4991474;28;45615;-72
2022/09/01 09:32:54;;;;;;;;;9.00;9.00;;;;;28.52;43.88;101280.25;4991583;28;45388;-72
2022/09/01 09:35:36;;;;;;;;;10.67;10.67;;;;;28.56;43.64;101281.56;4990989;28;45443;-72
2022/09/01 09:38:18;;;;;;;;;9.33;9.33;;;;;28.60;43.23;101279.31;4992613;28;45436;-71
2022/09/01 09:41:03;;;;;;;;;10.67;10.67;;;;;28.64;43.31;101278.72;5007252;28;46253;-72
2022/09/01 09:43:32;;;;;;;;;8.00;8.00;;;;;28.69;43.58;101277.31;5039920;28;45742;-72
2022/09/01 09:46:22;;;;;;;;;10.67;8.67;;;;;28.74;43.68;101274.84;5040908;28;45436;-72
2022/09/01 09:49:07;;;;;;;;;10.33;10.33;;;;;28.80;43.51;101279.53;5046203;28;45507;-73
2022/09/01 09:51:32;;;;;;;;;11.67;11.00;;;;;28.84;42.30;101271.81;5045824;28;45415;-74
2022/09/01 09:54:16;;;;;;;;;14.00;11.00;;;;;28.92;41.57;101278.06;5048367;28;45753;-73
2022/09/01 09:56:45;;;;;;;;;10.00;10.00;;;;;28.97;41.61;101276.63;5049211;28;46866;-73
2022/09/01 09:59:34;;;;;;;;;12.33;12.33;;;;;29.03;41.27;101273.97;5045221;28;45528;-73
2022/09/01 10:02:17;;;;;;;;;15.67;11.33;;;;;29.06;41.71;101273.56;5081963;27;46306;-72
2022/09/01 10:04:43;;;;;;;;;13.67;10.33;;;;;29.11;41.48;101263.94;5091617;27;45428;-72
2022/09/01 10:07:35;;;;;;;;;10.00;8.33;;;;;29.13;41.37;101273.66;5092672;27;45710;-72
2022/09/01 10:10:24;;;;;;;;;13.33;11.67;;;;;29.15;41.04;101268.84;5092661;27;45513;-72
2022/09/01 10:12:52;;;;;;;;;12.00;11.67;;;;;29.21;40.93;101263.66;5093353;27;45422;-72
2022/09/01 10:15:23;;;;;;;;;10.00;10.00;;;;;29.25;40.34;101265.78;5092293;27;45477;-71
2022/09/01 10:17:53;;;;;;;;;10.00;10.00;;;;;29.29;40.48;101261.63;5091752;27;45468;-71
2022/09/01 10:20:22;;;;;;;;;12.67;9.00;;;;;29.31;40.60;101259.53;5092529;27;45516;-71
2022/09/01 10:22:49;;;;;;;;;9.33;9.33;;;;;29.33;40.25;101253.88;5092497;27;46262;-72
2022/09/01 10:25:24;;;;;;;;;10.33;10.00;;;;;29.33;40.08;101256.59;5093126;27;45285;-73
2022/09/01 10:28:13;;;;;;;;;8.67;8.00;;;;;29.28;40.91;101256.34;5092267;27;45389;-73
2022/09/01 10:30:42;;;;;;;;;11.00;11.00;;;;;29.23;41.05;101259.69;5091324;27;45440;-73
2022/09/01 10:33:07;;;;;;;;;16.00;13.00;;;;;29.19;40.78;101248.25;5093815;27;48388;-72
2022/09/01 10:35:38;;;;;;;;;11.00;11.00;;;;;29.18;41.37;101254.78;5090236;27;45977;-72
2022/09/01 10:38:07;;;;;;;;;12.67;12.00;;;;;29.16;41.13;101240.47;5089692;27;45468;-72
2022/09/01 10:40:32;;;;;;;;;11.67;11.33;;;;;29.16;41.70;101245.09;5091343;27;45593;-73
2022/09/01 10:43:19;;;;;;;;;13.00;9.33;;;;;29.15;41.14;101247.00;5093161;27;46585;-73
2022/09/01 10:45:45;;;;;;;;;14.00;13.67;;;;;29.16;40.64;101239.63;5093048;27;45444;-74
2022/09/01 10:48:19;;;;;;;;;15.67;15.67;;;;;29.18;40.48;101235.66;5093917;27;45408;-73
2022/09/01 10:50:52;;;;;;;;;16.00;16.00;;;;;29.21;40.34;101239.88;5092316;27;45628;-73
2022/09/01 10:53:32;;;;;;;;;13.33;13.33;;;;;29.25;40.60;101240.31;5094479;27;46009;-73
2022/09/01 10:56:18;;;;;;;;;17.33;17.33;;;;;29.28;39.90;101242.69;5093223;27;45436;-73
2022/09/01 10:59:14;;;;;;;;;19.67;19.00;;;;;29.30;40.33;101235.97;5093306;27;45370;-73
2022/09/01 11:01:40;;;;;;;;;15.67;15.00;;;;;29.33;40.69;101237.47;5080933;27;45377;-73
2022/09/01 11:04:26;;;;;;;;;18.67;16.00;;;;;29.36;40.16;101239.81;5082819;27;45429;-72
2022/09/01 11:07:05;;;;;;;;;16.67;15.67;;;;;29.36;39.76;101233.50;5091660;27;45491;-72
2022/09/01 11:09:35;;;;;;;;;19.00;17.00;;;;;29.40;40.11;101237.53;5080928;27;45379;-73
2022/09/01 11:12:18;;;;;;;;;18.67;16.33;;;;;29.43;40.26;101232.50;5090811;27;45434;-71
2022/09/01 11:14:53;;;;;;;;;18.00;16.67;;;;;29.45;39.77;101226.84;5083836;27;46122;-72
2022/09/01 11:17:23;;;;;;;;;19.00;17.33;;;;;29.46;39.66;101234.00;5090722;27;45486;-72
2022/09/01 11:20:07;;;;;;;;;18.67;18.00;;;;;29.47;39.74;101219.31;5092283;27;45793;-72
2022/09/01 11:22:40;;;;;;;;;16.00;16.00;;;;;29.48;39.50;101220.13;5092737;27;45653;-73
2022/09/01 11:25:39;;;;;;;;;16.67;16.67;;;;;29.43;39.58;101213.38;5083546;27;46188;-73
2022/09/01 11:28:13;;;;;;;;;14.67;14.67;;;;;29.40;39.47;101213.78;5093402;27;45426;-73
2022/09/01 11:31:05;;;;;;;;;13.67;13.00;;;;;29.39;39.87;101206.59;5093921;27;45329;-74
2022/09/01 11:33:49;;;;;;;;;16.00;15.67;;;;;29.39;39.17;101214.78;5093161;27;45827;-73
2022/09/01 11:36:27;;;;;;;;;14.00;14.00;;;;;29.39;39.55;101211.25;5091698;27;45756;-73
2022/09/01 11:39:14;;;;;;;;;19.00;17.67;;;;;29.37;39.68;101208.69;5091995;27;45622;-73
2022/09/01 11:41:39;;;;;;;;;20.67;19.33;;;;;29.37;39.64;101214.16;5093020;27;45596;-73
2022/09/01 11:44:13;;;;;;;;;16.00;16.00;;;;;29.38;39.82;101212.28;5096645;27;45338;-74
2022/09/01 11:46:42;;;;;;;;;17.00;15.67;;;;;29.38;39.34;101209.56;5096484;27;46539;-74
2022/09/01 11:49:25;;;;;;;;;17.67;17.67;;;;;29.28;39.65;101216.19;5095758;27;45476;-72
2022/09/01 11:51:50;;;;;;;;;20.67;19.67;;;;;29.09;39.87;101205.94;5083011;27;45446;-73
2022/09/01 11:54:15;;;;;;;;;18.00;18.00;;;;;28.90;40.82;101205.53;5091391;27;45417;-74
2022/09/01 11:56:41;;;;;;;;;18.00;16.00;;;;;28.77;41.08;101207.03;5101374;27;46158;-72
2022/09/01 11:59:06;;;;;;;;;16.33;16.33;;;;;28.63;41.26;101197.00;5095317;27;45464;-71
2022/09/01 12:01:35;;;;;;;;;20.00;17.33;;;;;28.51;41.82;101204.84;5089864;27;45489;-72
2022/09/01 12:04:21;;;;;;;;;19.33;17.67;;;;;28.38;42.47;101205.53;5087331;27;45450;-71
2022/09/01 12:07:01;;;;;;;;;17.00;16.67;;;;;28.26;42.71;101197.84;5090154;27;46150;-71
2022/09/01 12:09:53;;;;;;;;;17.33;15.67;;;;;28.20;42.44;101192.25;5091898;27;45610;-72
2022/09/01 12:12:31;;;;;;;;;14.33;14.33;;;;;28.17;42.22;101198.94;5091656;27;45518;-72
2022/09/01 12:14:59;;;;;;;;;16.00;14.67;;;;;28.15;42.44;101188.19;5096244;27;45442;-71
2022/09/01 12:17:25;;;;;;;;;19.33;17.67;;;;;28.15;42.44;101195.53;5094331;27;46720;-72
2022/09/01 12:19:51;;;;;;;;;16.00;15.33;;;;;28.13;43.22;101195.72;5092056;27;45684;-72
2022/09/01 12:22:19;;;;;;;;;15.67;15.67;;;;;28.13;43.30;101183.97;5092603;27;45586;-72
2022/09/01 12:24:47;;;;;;;;;16.00;15.33;;;;;28.12;42.68;101179.56;5082578;27;45248;-72
2022/09/01 12:27:13;;;;;;;;;17.00;17.00;;;;;28.11;42.79;101188.75;5096539;27;46200;-74
2022/09/01 12:29:39;;;;;;;;;16.00;16.00;;;;;28.12;43.29;101185.84;5096530;27;45413;-73
2022/09/01 12:32:04;;;;;;;;;20.00;18.00;;;;;28.11;42.80;101186.88;5099493;27;45338;-73
2022/09/01 12:34:33;;;;;;;;;15.33;15.33;;;;;28.11;43.23;101180.56;5094772;27;45482;-73
2022/09/01 12:37:07;;;;;;;;;18.00;16.67;;;;;28.10;42.67;101185.19;5089907;27;45595;-72
2022/09/01 12:39:35;;;;;;;;;15.33;15.33;;;;;28.11;42.88;101186.03;5092130;27;45515;-71
2022/09/01 12:42:18;;;;;;;;;14.33;14.33;;;;;28.11;42.66;101184.16;5086323;27;45822;-72
2022/09/01 12:45:01;;;;;;;;;14.00;12.67;;;;;28.09;42.75;101180.78;5088337;27;45512;-71
2022/09/01 12:47:33;;;;;;;;;16.67;15.67;;;;;28.04;43.33;101175.06;5092593;27;46041;-71
2022/09/01 12:50:18;;;;;;;;;14.33;14.33;;;;;28.04;43.11;101168.72;5094103;27;45417;-71
2022/09/01 12:52:47;;;;;;;;;16.33;15.67;;;;;28.08;43.08;101175.50;5076636;27;45564;-71
2022/09/01 12:55:19;;;;;;;;;15.00;15.00;;;;;28.10;42.80;101177.00;5092037;27;45405;-71
2022/09/01 12:57:51;;;;;;;;;16.33;14.67;;;;;28.11;43.41;101175.97;5091124;27;46328;-71
2022/09/01 13:00:22;;;;;;;;;13.67;13.67;;;;;28.08;43.24;101173.59;5091830;27;45411;-71
2022/09/01 13:03:12;;;;;;;;;16.00;16.00;;;;;28.06;43.10;101167.50;5094717;27;45815;-71
2022/09/01 13:05:46;;;;;;;;;13.33;12.67;;;;;28.04;42.80;101171.47;5075324;27;45610;-72
2022/09/01 13:08:20;;;;;;;;;16.67;15.33;;;;;28.01;43.34;101170.81;5094914;27;46244;-72
2022/09/01 13:10:49;;;;;;;;;14.00;14.00;;;;;28.00;43.07;101169.09;5093796;27;45486;-72
2022/09/01 13:13:16;;;;;;;;;14.33;14.33;;;;;27.98;43.25;101159.41;5093040;27;45684;-72
2022/09/01 13:15:49;;;;;;;;;12.33;12.33;;;;;27.97;43.09;101160.47;5096002;27;45697;-71
2022/09/01 13:18:16;;;;;;;;;16.00;16.00;;;;;27.98;42.93;101163.00;5093694;27;45992;-71
2022/09/01 13:20:42;;;;;;;;;14.33;14.33;;;;;27.98;42.96;101151.22;5094870;27;45531;-71
2022/09/01 13:23:08;;;;;;;;;15.67;15.67;;;;;27.99;43.02;101158.38;5092179;27;45397;-72
2022/09/01 13:25:34;;;;;;;;;16.00;14.33;;;;;28.03;42.84;101156.97;5094214;27;45460;-71
2022/09/01 13:28:01;;;;;;;;;17.00;13.00;;;;;28.05;42.78;101154.91;5095114;27;46084;-71
2022/09/01 13:30:28;;;;;;;;;16.00;14.67;;;;;28.08;43.08;101151.78;5096156;27;45469;-71
2022/09/01 13:32:55;;;;;;;;;14.00;13.33;;;;;28.11;43.31;101148.69;5092243;27;45548;-71
2022/09/01 13:35:21;;;;;;;;;14.00;13.33;;;;;28.14;43.07;101152.91;5095417;27;45458;-72
2022/09/01 13:37:47;;;;;;;;;14.00;14.00;;;;;28.16;43.35;101153.59;5094188;27;45639;-71
2022/09/01 13:40:15;;;;;;;;;15.67;15.00;;;;;28.17;42.78;101149.81;5094773;27;45480;-72
2022/09/01 13:42:45;;;;;;;;;17.33;15.00;;;;;28.14;43.01;101144.72;5094050;27;45476;-72
2022/09/01 13:45:12;;;;;;;;;14.67;14.00;;;;;28.08;43.22;101140.88;5089213;27;45447;-71
2022/09/01 13:47:41;;;;;;;;;13.33;13.33;;;;;28.03;43.59;101146.06;5089878;27;45895;-71
2022/09/01 13:50:09;;;;;;;;;14.67;12.67;;;;;27.97;42.92;101138.63;5090395;27;47332;-71
2022/09/01 13:52:36;;;;;;;;;16.00;16.00;;;;;27.93;43.41;101143.63;5094370;27;45378;-71
2022/09/01 13:55:02;;;;;;;;;15.00;15.00;;;;;27.90;42.77;101137.72;5093960;27;45555;-72
2022/09/01 13:57:27;;;;;;;;;13.33;12.33;;;;;27.87;42.93;101130.72;5089289;27;47537;-71
2022/09/01 13:59:53;;;;;;;;;15.00;13.67;;;;;27.84;43.23;101140.13;5083882;27;45714;-72
2022/09/01 14:02:19;;;;;;;;;14.33;13.67;;;;;27.83;43.63;101133.00;5084716;27;47165;-72
2022/09/01 14:04:44;;;;;;;;;13.00;13.00;;;;;27.85;43.58;101128.22;5082748;27;45572;-71
2022/09/01 14:07:09;;;;;;;;;14.67;13.67;;;;;27.88;43.37;101138.72;5083862;27;47146;-71
2022/09/01 14:09:35;;;;;;;;;12.67;12.67;;;;;27.92;43.03;101128.31;5084066;27;45805;-71
2022/09/01 14:12:00;;;;;;;;;12.00;11.33;;;;;27.93;43.46;101131.84;5083302;27;46275;-71
2022/09/01 14:14:26;;;;;;;;;16.00;15.00;;;;;27.96;42.87;101131.50;5085023;27;45470;-70
2022/09/01 14:16:52;;;;;;;;;12.00;12.00;;;;;27.96;43.26;101123.31;5083907;27;45901;-71
2022/09/01 14:19:17;;;;;;;;;15.33;15.33;;;;;27.96;42.83;101120.59;5083457;27;46132;-73
2022/09/01 14:21:43;;;;;;;;;13.67;13.67;;;;;27.98;42.68;101127.53;5085279;27;45628;-73
2022/09/01 14:24:08;;;;;;;;;14.00;13.33;;;;;27.96;42.81;101126.88;5085683;27;45595;-72
2022/09/01 14:26:34;;;;;;;;;12.33;11.00;;;;;27.94;43.07;101126.22;5093450;27;45948;-71
2022/09/01 14:29:01;;;;;;;;;14.33;14.33;;;;;27.96;43.40;101121.41;5093102;27;45524;-71
2022/09/01 14:31:28;;;;;;;;;13.33;13.33;;;;;28.01;43.11;101112.66;5089138;27;45866;-71
2022/09/01 14:33:54;;;;;;;;;14.67;13.33;;;;;28.02;42.98;101114.34;5092284;27;45580;-71
2022/09/01 14:36:23;;;;;;;;;12.00;11.67;;;;;28.03;43.06;101110.59;5090452;27;46956;-70
2022/09/01 14:38:50;;;;;;;;;13.00;11.67;;;;;28.01;43.26;101110.81;5084734;27;45820;-71
2022/09/01 14:41:20;;;;;;;;;12.33;12.33;;;;;28.02;43.17;101103.44;5092437;27;45483;-72
2022/09/01 14:43:46;;;;;;;;;15.33;15.00;;;;;27.97;42.90;101112.22;5089346;27;45516;-71
2022/09/01 14:46:11;;;;;;;;;15.67;15.67;;;;;27.97;43.28;101111.34;5092574;27;46239;-71
2022/09/01 14:48:39;;;;;;;;;14.00;14.00;;;;;27.95;42.76;101108.81;5093786;27;45433;-71
2022/09/01 14:51:06;;;;;;;;;12.00;12.00;;;;;27.96;43.39;101098.75;5091169;27;45432;-71
2022/09/01 14:53:31;;;;;;;;;11.33;11.33;;;;;28.00;42.93;101095.44;5090201;27;45532;-71
2022/09/01 14:55:59;;;;;;;;;12.00;11.67;;;;;28.04;42.53;101095.94;5091503;27;56536;-71
2022/09/01 14:58:26;;;;;;;;;11.67;11.67;;;;;28.04;43.29;101087.75;5090671;27;45398;-69
2022/09/01 15:00:55;;;;;;;;;11.67;11.67;;;;;28.04;42.91;101089.63;5092983;27;45619;-70
2022/09/01 15:03:21;;;;;;;;;13.33;12.00;;;;;28.07;42.44;101084.63;5092087;27;45417;-70
2022/09/01 15:05:46;;;;;;;;;10.33;10.33;;;;;28.10;42.38;101083.38;5093000;27;46121;-70
2022/09/01 15:08:12;;;;;;;;;12.00;11.33;;;;;28.12;42.28;101087.63;5093073;27;45665;-72
2022/09/01 15:10:38;;;;;;;;;9.00;9.00;;;;;28.10;42.25;101083.38;5093428;27;45432;-72
2022/09/01 15:13:04;;;;;;;;;14.00;13.33;;;;;28.06;42.51;101084.81;5092294;27;45779;-71
2022/09/01 15:15:30;;;;;;;;;11.33;9.67;;;;;28.05;43.03;101074.94;5093361;27;46867;-73
2022/09/01 16:18:08;;;;;;;;;13.00;11.67;;;;;26.02;43.42;101044.38;5046311;27;45514;-73
2022/09/01 16:20:52;;;;;;;;;10.33;10.33;;;;;26.04;44.21;101040.44;5045299;28;45446;-73
2022/09/01 16:23:21;;;;;;;;;10.33;9.00;;;;;26.16;44.11;101045.50;5041598;28;45778;-72
2022/09/01 16:25:47;;;;;;;;;12.33;9.33;;;;;26.29;43.70;101040.31;5046020;28;45490;-73
2022/09/01 16:28:23;;;;;;;;;10.67;9.67;;;;;26.44;43.76;101037.69;5044798;28;46199;-73
2022/09/01 16:30:51;;;;;;;;;9.67;9.67;;;;;26.57;43.15;101038.97;5049017;28;45893;-73
2022/09/01 16:33:19;;;;;;;;;13.33;10.00;;;;;26.72;43.20;101030.00;5050403;28;45431;-73
2022/09/01 16:36:19;;;;;;;;;10.67;8.67;;;;;26.86;42.74;101034.63;5050200;28;45477;-73
2022/09/01 16:38:54;;;;;;;;;11.33;7.67;;;;;26.99;42.54;101030.44;5033783;28;47117;-74
2022/09/01 16:41:47;;;;;;;;;9.00;9.00;;;;;27.13;42.59;101029.63;5034711;28;45373;-74
2022/09/01 16:44:36;;;;;;;;;7.00;7.00;;;;;27.27;42.02;101024.38;5047066;28;45775;-73
2022/09/01 16:47:27;;;;;;;;;9.33;8.33;;;;;27.38;42.17;101031.25;5038881;28;45468;-72
2022/09/01 16:50:04;;;;;;;;;10.33;8.00;;;;;27.46;41.72;101026.53;5042284;28;45525;-73
2022/09/01 16:52:48;;;;;;;;;7.00;7.00;;;;;27.49;41.82;101033.50;5047211;28;45379;-73
2022/09/01 16:55:25;;;;;;;;;7.67;7.33;;;;;27.54;42.02;101030.22;5034194;28;45366;-73
2022/09/01 16:57:58;;;;;;;;;8.00;6.67;;;;;27.59;41.36;101035.94;5042880;28;45734;-73
2022/09/01 17:00:35;;;;;;;;;10.33;7.67;;;;;27.64;41.27;101033.53;5038156;28;47343;-74
2022/09/01 17:03:10;;;;;;;;;9.00;7.33;;;;;27.67;41.37;101030.41;5046923;28;45459;-74
2022/09/01 17:05:44;;;;;;;;;8.67;7.00;;;;;27.70;41.91;101034.63;5047551;28;45521;-74
2022/09/01 17:08:09;;;;;;;;;7.33;7.00;;;;;27.74;42.01;101028.63;5044036;28;45573;-75
2022/09/01 17:10:42;;;;;;;;;9.00;9.00;;;;;27.87;41.33;101030.66;5046679;28;46102;-74
2022/09/01 17:13:37;;;;;;;;;9.67;9.67;;;;;28.07;41.41;101027.31;5047511;28;45512;-74
2022/09/01 17:16:10;;;;;;;;;10.00;10.00;;;;;28.23;41.38;101025.38;5046097;28;45952;-74
2022/09/01 17:18:37;;;;;;;;;9.00;9.00;;;;;28.36;41.05;101019.28;5049485;28;45411;-74
2022/09/01 17:21:30;;;;;;;;;11.67;11.67;;;;;28.52;40.36;101020.88;5049517;28;45660;-74
2022/09/01 17:24:13;;;;;;;;;7.67;7.67;;;;;28.61;40.84;101016.97;5047039;28;45343;-74
2022/09/01 17:26:39;;;;;;;;;13.67;11.67;;;;;28.70;40.56;101014.97;5048453;28;45343;-74
2022/09/01 17:29:21;;;;;;;;;9.33;9.33;;;;;28.79;40.18;101024.69;5035746;28;45576;-74
2022/09/01 17:32:28;;;;;;;;;9.00;9.00;;;;;28.87;40.57;101020.97;5048064;28;47396;-77
2022/09/01 17:35:22;;;;;;;;;8.33;8.33;;;;;28.62;41.96;101018.69;5024611;28;45759;-79
2022/09/01 17:37:59;;;;;;;;;9.00;8.33;;;;;28.37;42.75;101021.78;5025239;28;45642;-78
2022/09/01 17:40:57;;;;;;;;;9.00;9.00;;;;;28.13;43.74;101022.97;5034468;28;45399;-77
2022/09/01 17:43:32;;;;;;;;;11.33;10.33;;;;;27.98;43.94;101021.16;5049129;28;47247;-76
2022/09/01 17:46:13;;;;;;;;;9.33;8.67;;;;;27.85;45.37;101010.06;5033801;28;45809;-76
2022/09/01 17:48:55;;;;;;;;;10.00;8.67;;;;;27.80;45.87;101012.53;5033900;28;45582;-76
2022/09/01 17:51:47;;;;;;;;;8.00;8.00;;;;;27.73;45.72;101012.44;5034008;28;45455;-76
2022/09/01 17:54:24;;;;;;;;;8.00;8.00;;;;;27.67;46.87;101008.59;5023884;28;46379;-77
2022/09/01 17:57:11;;;;;;;;;11.00;8.33;;;;;27.61;46.97;101012.94;5031901;28;45479;-76
2022/09/01 18:00:12;;;;;;;;;11.00;8.00;;;;;27.61;47.53;101020.25;5033270;28;45717;-77
2022/09/01 18:02:57;;;;;;;;;7.33;7.33;;;;;27.56;47.56;101020.81;5011009;28;45435;-77
2022/09/01 18:05:24;;;;;;;;;11.33;8.67;;;;;27.52;48.37;101016.78;5011708;28;46183;-79
2022/09/01 18:08:20;;;;;;;;;10.00;9.00;;;;;27.51;48.37;101027.84;5011710;28;45722;-77
2022/09/01 18:11:07;;;;;;;;;7.33;7.33;;;;;27.49;49.17;101026.19;5011713;28;45496;-77
2022/09/01 18:13:46;;;;;;;;;9.00;8.00;;;;;27.49;49.51;101034.34;5013011;28;45504;-79
2022/09/01 18:16:16;;;;;;;;;9.00;7.33;;;;;27.49;49.73;101034.34;5009089;28;46221;-76
